sensor_id;sensor_type;location;lat;lon;timestamp;P1;durP1;ratioP1;P2;durP2;ratioP2
11171;SDS011;5642;50.830;12.082;2023-06-26T00:02:18;1.40;;;1.30;;
11171;SDS011;5642;50.830;12.082;2023-06-26T00:05:04;1.80;;;1.42;;
11171;SDS011;5642;50.830;12.082;2023-06-26T00:07:50;2.05;;;1.40;;
11171;SDS011;5642;50.830;12.082;2023-06-26T00:10:36;1.50;;;1.40;;
11171;SDS011;5642;50.830;12.082;2023-06-26T00:13:22;1.60;;;1.50;;
11171;SDS011;5642;50.830;12.082;2023-06-26T00:16:09;1.60;;;1.50;;
11171;SDS011;5642;50.830;12.082;2023-06-26T00:18:55;1.67;;;1.58;;
11171;SDS011;5642;50.830;12.082;2023-06-26T00:21:40;1.38;;;1.27;;
11171;SDS011;5642;50.830;12.082;2023-06-26T00:24:31;1.50;;;1.40;;
11171;SDS011;5642;50.830;12.082;2023-06-26T00:27:17;1.77;;;1.38;;
11171;SDS011;5642;50.830;12.082;2023-06-26T00:30:03;1.42;;;1.33;;
11171;SDS011;5642;50.830;12.082;2023-06-26T00:32:49;1.80;;;1.70;;
11171;SDS011;5642;50.830;12.082;2023-06-26T00:35:36;2.00;;;1.30;;
11171;SDS011;5642;50.830;12.082;2023-06-26T00:38:22;1.38;;;1.30;;
11171;SDS011;5642;50.830;12.082;2023-06-26T00:41:08;1.60;;;1.50;;
11171;SDS011;5642;50.830;12.082;2023-06-26T00:43:57;1.40;;;1.30;;
11171;SDS011;5642;50.830;12.082;2023-06-26T00:46:43;1.58;;;1.48;;
11171;SDS011;5642;50.830;12.082;2023-06-26T00:49:29;1.63;;;1.40;;
11171;SDS011;5642;50.830;12.082;2023-06-26T00:52:15;1.50;;;1.40;;
11171;SDS011;5642;50.830;12.082;2023-06-26T00:55:02;1.80;;;1.42;;
11171;SDS011;5642;50.830;12.082;2023-06-26T00:57:48;1.80;;;1.70;;
11171;SDS011;5642;50.830;12.082;2023-06-26T01:00:34;2.38;;;1.60;;
11171;SDS011;5642;50.830;12.082;2023-06-26T01:03:21;1.60;;;1.50;;
11171;SDS011;5642;50.830;12.082;2023-06-26T01:06:10;2.30;;;1.50;;
11171;SDS011;5642;50.830;12.082;2023-06-26T01:08:58;1.70;;;1.60;;
11171;SDS011;5642;50.830;12.082;2023-06-26T01:11:45;1.70;;;1.60;;
11171;SDS011;5642;50.830;12.082;2023-06-26T01:14:31;1.58;;;1.40;;
11171;SDS011;5642;50.830;12.082;2023-06-26T01:17:17;1.63;;;1.52;;
11171;SDS011;5642;50.830;12.082;2023-06-26T01:20:05;1.90;;;1.27;;
11171;SDS011;5642;50.830;12.082;2023-06-26T01:23:07;1.55;;;1.45;;
11171;SDS011;5642;50.830;12.082;2023-06-26T01:26:19;1.40;;;1.30;;
11171;SDS011;5642;50.830;12.082;2023-06-26T01:29:06;1.52;;;1.42;;
11171;SDS011;5642;50.830;12.082;2023-06-26T01:31:55;1.70;;;1.60;;
11171;SDS011;5642;50.830;12.082;2023-06-26T01:34:42;1.67;;;1.58;;
11171;SDS011;5642;50.830;12.082;2023-06-26T01:37:30;1.80;;;1.70;;
11171;SDS011;5642;50.830;12.082;2023-06-26T01:40:15;1.67;;;1.58;;
11171;SDS011;5642;50.830;12.082;2023-06-26T01:43:01;1.85;;;1.75;;
11171;SDS011;5642;50.830;12.082;2023-06-26T01:45:48;2.35;;;1.60;;
11171;SDS011;5642;50.830;12.082;2023-06-26T01:48:47;2.08;;;1.35;;
11171;SDS011;5642;50.830;12.082;2023-06-26T01:51:45;1.55;;;1.40;;
11171;SDS011;5642;50.830;12.082;2023-06-26T01:57:52;1.35;;;1.27;;
11171;SDS011;5642;50.830;12.082;2023-06-26T02:00:42;1.52;;;1.40;;
11171;SDS011;5642;50.830;12.082;2023-06-26T02:03:28;1.63;;;1.48;;
11171;SDS011;5642;50.830;12.082;2023-06-26T02:06:15;1.75;;;1.65;;
11171;SDS011;5642;50.830;12.082;2023-06-26T02:09:01;1.40;;;1.30;;
11171;SDS011;5642;50.830;12.082;2023-06-26T02:11:47;1.50;;;1.40;;
11171;SDS011;5642;50.830;12.082;2023-06-26T02:14:33;1.60;;;1.50;;
11171;SDS011;5642;50.830;12.082;2023-06-26T02:17:19;1.63;;;1.52;;
11171;SDS011;5642;50.830;12.082;2023-06-26T02:20:05;1.70;;;1.60;;
11171;SDS011;5642;50.830;12.082;2023-06-26T02:22:53;1.50;;;1.40;;
11171;SDS011;5642;50.830;12.082;2023-06-26T02:25:39;1.70;;;1.40;;
11171;SDS011;5642;50.830;12.082;2023-06-26T02:28:24;2.50;;;1.58;;
11171;SDS011;5642;50.830;12.082;2023-06-26T02:31:10;1.70;;;1.52;;
11171;SDS011;5642;50.830;12.082;2023-06-26T02:33:56;1.95;;;1.38;;
11171;SDS011;5642;50.830;12.082;2023-06-26T02:36:42;1.77;;;1.63;;
11171;SDS011;5642;50.830;12.082;2023-06-26T02:39:28;1.92;;;1.60;;
11171;SDS011;5642;50.830;12.082;2023-06-26T02:42:14;1.63;;;1.52;;
11171;SDS011;5642;50.830;12.082;2023-06-26T02:45:00;2.47;;;1.60;;
11171;SDS011;5642;50.830;12.082;2023-06-26T02:47:46;1.48;;;1.38;;
11171;SDS011;5642;50.830;12.082;2023-06-26T02:50:31;1.83;;;1.70;;
11171;SDS011;5642;50.830;12.082;2023-06-26T02:53:17;1.67;;;1.58;;
11171;SDS011;5642;50.830;12.082;2023-06-26T02:56:03;1.60;;;1.50;;
11171;SDS011;5642;50.830;12.082;2023-06-26T02:58:49;1.75;;;1.40;;
11171;SDS011;5642;50.830;12.082;2023-06-26T03:01:35;1.60;;;1.50;;
11171;SDS011;5642;50.830;12.082;2023-06-26T03:04:21;1.63;;;1.50;;
11171;SDS011;5642;50.830;12.082;2023-06-26T03:07:07;2.15;;;1.50;;
11171;SDS011;5642;50.830;12.082;2023-06-26T03:09:53;1.40;;;1.30;;
11171;SDS011;5642;50.830;12.082;2023-06-26T03:12:39;2.28;;;1.25;;
11171;SDS011;5642;50.830;12.082;2023-06-26T03:15:25;1.48;;;1.23;;
11171;SDS011;5642;50.830;12.082;2023-06-26T03:18:10;1.35;;;1.25;;
11171;SDS011;5642;50.830;12.082;2023-06-26T03:20:57;1.60;;;1.50;;
11171;SDS011;5642;50.830;12.082;2023-06-26T03:23:43;1.88;;;1.67;;
11171;SDS011;5642;50.830;12.082;2023-06-26T03:26:29;1.52;;;1.42;;
11171;SDS011;5642;50.830;12.082;2023-06-26T03:29:15;2.55;;;1.65;;
11171;SDS011;5642;50.830;12.082;2023-06-26T03:32:01;1.67;;;1.58;;
11171;SDS011;5642;50.830;12.082;2023-06-26T03:34:46;2.38;;;1.50;;
11171;SDS011;5642;50.830;12.082;2023-06-26T03:37:32;2.00;;;1.90;;
11171;SDS011;5642;50.830;12.082;2023-06-26T03:40:18;1.80;;;1.70;;
11171;SDS011;5642;50.830;12.082;2023-06-26T03:43:04;1.67;;;1.58;;
11171;SDS011;5642;50.830;12.082;2023-06-26T03:45:50;4.03;;;1.88;;
11171;SDS011;5642;50.830;12.082;2023-06-26T03:48:36;1.50;;;1.40;;
11171;SDS011;5642;50.830;12.082;2023-06-26T03:51:23;2.85;;;1.70;;
11171;SDS011;5642;50.830;12.082;2023-06-26T03:54:09;2.30;;;1.90;;
11171;SDS011;5642;50.830;12.082;2023-06-26T03:56:54;1.90;;;1.80;;
11171;SDS011;5642;50.830;12.082;2023-06-26T03:59:40;3.05;;;1.50;;
11171;SDS011;5642;50.830;12.082;2023-06-26T04:02:26;1.83;;;1.73;;
11171;SDS011;5642;50.830;12.082;2023-06-26T04:05:12;1.52;;;1.42;;
11171;SDS011;5642;50.830;12.082;2023-06-26T04:07:58;1.83;;;1.73;;
11171;SDS011;5642;50.830;12.082;2023-06-26T04:10:44;1.75;;;1.65;;
11171;SDS011;5642;50.830;12.082;2023-06-26T04:13:30;2.08;;;1.92;;
11171;SDS011;5642;50.830;12.082;2023-06-26T04:16:16;1.70;;;1.60;;
11171;SDS011;5642;50.830;12.082;2023-06-26T04:19:02;1.65;;;1.55;;
11171;SDS011;5642;50.830;12.082;2023-06-26T04:21:50;1.92;;;1.77;;
11171;SDS011;5642;50.830;12.082;2023-06-26T04:24:36;2.67;;;1.52;;
11171;SDS011;5642;50.830;12.082;2023-06-26T04:27:22;2.47;;;1.77;;
11171;SDS011;5642;50.830;12.082;2023-06-26T04:30:08;1.80;;;1.70;;
11171;SDS011;5642;50.830;12.082;2023-06-26T04:32:55;1.70;;;1.60;;
11171;SDS011;5642;50.830;12.082;2023-06-26T04:35:44;2.20;;;2.10;;
11171;SDS011;5642;50.830;12.082;2023-06-26T04:38:32;2.05;;;1.95;;
11171;SDS011;5642;50.830;12.082;2023-06-26T04:41:18;1.90;;;1.80;;
11171;SDS011;5642;50.830;12.082;2023-06-26T04:44:04;2.90;;;2.08;;
11171;SDS011;5642;50.830;12.082;2023-06-26T04:46:50;1.98;;;1.88;;
11171;SDS011;5642;50.830;12.082;2023-06-26T04:49:37;2.67;;;1.90;;
11171;SDS011;5642;50.830;12.082;2023-06-26T04:52:23;1.80;;;1.70;;
11171;SDS011;5642;50.830;12.082;2023-06-26T04:55:09;1.73;;;1.63;;
11171;SDS011;5642;50.830;12.082;2023-06-26T04:57:54;2.05;;;1.85;;
11171;SDS011;5642;50.830;12.082;2023-06-26T05:00:40;1.90;;;1.80;;
11171;SDS011;5642;50.830;12.082;2023-06-26T05:03:28;1.92;;;1.83;;
11171;SDS011;5642;50.830;12.082;2023-06-26T05:06:14;1.70;;;1.60;;
11171;SDS011;5642;50.830;12.082;2023-06-26T05:09:00;2.00;;;1.80;;
11171;SDS011;5642;50.830;12.082;2023-06-26T05:11:46;1.80;;;1.70;;
11171;SDS011;5642;50.830;12.082;2023-06-26T05:14:32;2.00;;;1.90;;
11171;SDS011;5642;50.830;12.082;2023-06-26T05:17:18;1.90;;;1.80;;
11171;SDS011;5642;50.830;12.082;2023-06-26T05:20:04;1.88;;;1.77;;
11171;SDS011;5642;50.830;12.082;2023-06-26T05:22:50;2.08;;;1.98;;
11171;SDS011;5642;50.830;12.082;2023-06-26T05:25:37;2.10;;;2.00;;
11171;SDS011;5642;50.830;12.082;2023-06-26T05:28:24;1.88;;;1.77;;
11171;SDS011;5642;50.830;12.082;2023-06-26T05:31:11;1.80;;;1.70;;
11171;SDS011;5642;50.830;12.082;2023-06-26T05:33:57;1.88;;;1.73;;
11171;SDS011;5642;50.830;12.082;2023-06-26T05:36:46;1.63;;;1.52;;
11171;SDS011;5642;50.830;12.082;2023-06-26T05:39:36;1.73;;;1.63;;
11171;SDS011;5642;50.830;12.082;2023-06-26T05:42:22;1.80;;;1.70;;
11171;SDS011;5642;50.830;12.082;2023-06-26T05:45:08;2.28;;;1.60;;
11171;SDS011;5642;50.830;12.082;2023-06-26T05:47:55;1.60;;;1.50;;
11171;SDS011;5642;50.830;12.082;2023-06-26T05:50:42;1.95;;;1.85;;
11171;SDS011;5642;50.830;12.082;2023-06-26T05:53:29;1.77;;;1.67;;
11171;SDS011;5642;50.830;12.082;2023-06-26T05:56:15;1.90;;;1.80;;
11171;SDS011;5642;50.830;12.082;2023-06-26T05:59:01;1.80;;;1.70;;
11171;SDS011;5642;50.830;12.082;2023-06-26T06:01:48;1.80;;;1.70;;
11171;SDS011;5642;50.830;12.082;2023-06-26T06:04:34;2.22;;;1.75;;
11171;SDS011;5642;50.830;12.082;2023-06-26T06:07:20;1.70;;;1.60;;
11171;SDS011;5642;50.830;12.082;2023-06-26T06:10:07;1.70;;;1.60;;
11171;SDS011;5642;50.830;12.082;2023-06-26T06:12:53;1.65;;;1.55;;
11171;SDS011;5642;50.830;12.082;2023-06-26T06:15:39;1.77;;;1.67;;
11171;SDS011;5642;50.830;12.082;2023-06-26T06:18:25;1.95;;;1.85;;
11171;SDS011;5642;50.830;12.082;2023-06-26T06:21:11;1.85;;;1.67;;
11171;SDS011;5642;50.830;12.082;2023-06-26T06:23:57;1.90;;;1.80;;
11171;SDS011;5642;50.830;12.082;2023-06-26T06:26:43;1.92;;;1.83;;
11171;SDS011;5642;50.830;12.082;2023-06-26T06:29:29;1.80;;;1.70;;
11171;SDS011;5642;50.830;12.082;2023-06-26T06:32:14;1.85;;;1.75;;
11171;SDS011;5642;50.830;12.082;2023-06-26T06:35:00;1.90;;;1.80;;
11171;SDS011;5642;50.830;12.082;2023-06-26T06:37:54;1.80;;;1.70;;
11171;SDS011;5642;50.830;12.082;2023-06-26T06:40:39;1.77;;;1.67;;
11171;SDS011;5642;50.830;12.082;2023-06-26T06:43:05;2.00;;;1.90;;
11171;SDS011;5642;50.830;12.082;2023-06-26T06:45:49;1.95;;;1.85;;
11171;SDS011;5642;50.830;12.082;2023-06-26T06:48:24;1.80;;;1.70;;
11171;SDS011;5642;50.830;12.082;2023-06-26T06:50:50;1.77;;;1.67;;
11171;SDS011;5642;50.830;12.082;2023-06-26T06:53:17;1.95;;;1.85;;
11171;SDS011;5642;50.830;12.082;2023-06-26T06:55:46;1.85;;;1.75;;
11171;SDS011;5642;50.830;12.082;2023-06-26T06:58:12;1.80;;;1.70;;
11171;SDS011;5642;50.830;12.082;2023-06-26T07:00:38;2.10;;;2.00;;
11171;SDS011;5642;50.830;12.082;2023-06-26T07:03:04;1.75;;;1.65;;
11171;SDS011;5642;50.830;12.082;2023-06-26T07:05:30;2.00;;;1.60;;
11171;SDS011;5642;50.830;12.082;2023-06-26T07:07:56;1.80;;;1.70;;
11171;SDS011;5642;50.830;12.082;2023-06-26T07:10:22;1.77;;;1.67;;
11171;SDS011;5642;50.830;12.082;2023-06-26T07:12:48;1.73;;;1.63;;
11171;SDS011;5642;50.830;12.082;2023-06-26T07:15:14;1.88;;;1.77;;
11171;SDS011;5642;50.830;12.082;2023-06-26T07:17:40;1.80;;;1.70;;
11171;SDS011;5642;50.830;12.082;2023-06-26T07:20:06;1.80;;;1.70;;
11171;SDS011;5642;50.830;12.082;2023-06-26T07:22:52;1.67;;;1.58;;
11171;SDS011;5642;50.830;12.082;2023-06-26T07:25:18;1.98;;;1.77;;
11171;SDS011;5642;50.830;12.082;2023-06-26T07:27:44;1.83;;;1.73;;
11171;SDS011;5642;50.830;12.082;2023-06-26T07:30:10;2.08;;;1.95;;
11171;SDS011;5642;50.830;12.082;2023-06-26T07:32:37;1.80;;;1.70;;
11171;SDS011;5642;50.830;12.082;2023-06-26T07:35:03;1.75;;;1.65;;
11171;SDS011;5642;50.830;12.082;2023-06-26T07:37:29;3.45;;;1.80;;
11171;SDS011;5642;50.830;12.082;2023-06-26T07:39:55;1.73;;;1.63;;
11171;SDS011;5642;50.830;12.082;2023-06-26T07:42:22;1.88;;;1.77;;
11171;SDS011;5642;50.830;12.082;2023-06-26T07:44:48;2.08;;;1.98;;
11171;SDS011;5642;50.830;12.082;2023-06-26T07:47:14;1.88;;;1.77;;
11171;SDS011;5642;50.830;12.082;2023-06-26T07:49:40;1.80;;;1.70;;
11171;SDS011;5642;50.830;12.082;2023-06-26T07:52:07;1.73;;;1.67;;
11171;SDS011;5642;50.830;12.082;2023-06-26T07:54:36;1.73;;;1.63;;
11171;SDS011;5642;50.830;12.082;2023-06-26T07:57:03;1.90;;;1.80;;
11171;SDS011;5642;50.830;12.082;2023-06-26T07:59:34;2.03;;;1.92;;
11171;SDS011;5642;50.830;12.082;2023-06-26T08:02:00;1.95;;;1.85;;
11171;SDS011;5642;50.830;12.082;2023-06-26T08:04:27;2.03;;;1.92;;
11171;SDS011;5642;50.830;12.082;2023-06-26T08:06:59;2.00;;;1.90;;
11171;SDS011;5642;50.830;12.082;2023-06-26T08:09:26;2.22;;;2.13;;
11171;SDS011;5642;50.830;12.082;2023-06-26T08:11:55;2.05;;;1.95;;
11171;SDS011;5642;50.830;12.082;2023-06-26T08:14:22;1.88;;;1.77;;
11171;SDS011;5642;50.830;12.082;2023-06-26T08:16:49;2.05;;;1.83;;
11171;SDS011;5642;50.830;12.082;2023-06-26T08:19:16;2.00;;;1.90;;
11171;SDS011;5642;50.830;12.082;2023-06-26T08:21:43;1.77;;;1.67;;
11171;SDS011;5642;50.830;12.082;2023-06-26T08:24:10;2.10;;;2.00;;
11171;SDS011;5642;50.830;12.082;2023-06-26T08:26:38;2.17;;;2.08;;
11171;SDS011;5642;50.830;12.082;2023-06-26T08:29:05;2.13;;;2.03;;
11171;SDS011;5642;50.830;12.082;2023-06-26T08:31:37;1.95;;;1.85;;
11171;SDS011;5642;50.830;12.082;2023-06-26T08:34:04;1.73;;;1.63;;
11171;SDS011;5642;50.830;12.082;2023-06-26T08:36:30;1.92;;;1.83;;
11171;SDS011;5642;50.830;12.082;2023-06-26T08:38:57;2.10;;;2.00;;
11171;SDS011;5642;50.830;12.082;2023-06-26T08:41:23;1.90;;;1.80;;
11171;SDS011;5642;50.830;12.082;2023-06-26T08:43:49;2.20;;;2.10;;
11171;SDS011;5642;50.830;12.082;2023-06-26T08:46:18;2.25;;;2.00;;
11171;SDS011;5642;50.830;12.082;2023-06-26T08:48:49;2.20;;;2.10;;
11171;SDS011;5642;50.830;12.082;2023-06-26T08:51:37;2.05;;;1.95;;
11171;SDS011;5642;50.830;12.082;2023-06-26T08:54:09;2.45;;;2.35;;
11171;SDS011;5642;50.830;12.082;2023-06-26T08:56:42;2.17;;;2.08;;
11171;SDS011;5642;50.830;12.082;2023-06-26T08:59:10;2.40;;;2.30;;
11171;SDS011;5642;50.830;12.082;2023-06-26T09:01:38;1.98;;;1.88;;
11171;SDS011;5642;50.830;12.082;2023-06-26T09:04:05;1.90;;;1.80;;
11171;SDS011;5642;50.830;12.082;2023-06-26T09:06:33;1.90;;;1.80;;
11171;SDS011;5642;50.830;12.082;2023-06-26T09:09:00;2.20;;;2.10;;
11171;SDS011;5642;50.830;12.082;2023-06-26T09:11:26;2.20;;;2.10;;
11171;SDS011;5642;50.830;12.082;2023-06-26T09:13:53;2.20;;;2.10;;
11171;SDS011;5642;50.830;12.082;2023-06-26T09:16:23;2.22;;;2.13;;
11171;SDS011;5642;50.830;12.082;2023-06-26T09:18:52;2.10;;;2.00;;
11171;SDS011;5642;50.830;12.082;2023-06-26T09:21:19;2.95;;;2.20;;
11171;SDS011;5642;50.830;12.082;2023-06-26T09:23:45;3.05;;;2.55;;
11171;SDS011;5642;50.830;12.082;2023-06-26T09:26:12;2.10;;;2.00;;
11171;SDS011;5642;50.830;12.082;2023-06-26T09:28:42;2.17;;;2.08;;
11171;SDS011;5642;50.830;12.082;2023-06-26T09:31:08;2.20;;;2.10;;
11171;SDS011;5642;50.830;12.082;2023-06-26T09:33:36;2.33;;;2.22;;
11171;SDS011;5642;50.830;12.082;2023-06-26T09:36:18;2.30;;;2.20;;
11171;SDS011;5642;50.830;12.082;2023-06-26T09:38:45;2.30;;;2.20;;
11171;SDS011;5642;50.830;12.082;2023-06-26T09:41:11;2.38;;;2.28;;
11171;SDS011;5642;50.830;12.082;2023-06-26T09:43:46;2.40;;;2.30;;
11171;SDS011;5642;50.830;12.082;2023-06-26T09:46:15;2.25;;;2.15;;
11171;SDS011;5642;50.830;12.082;2023-06-26T09:49:03;2.20;;;2.10;;
11171;SDS011;5642;50.830;12.082;2023-06-26T09:51:31;2.08;;;1.98;;
11171;SDS011;5642;50.830;12.082;2023-06-26T09:54:01;2.10;;;2.00;;
11171;SDS011;5642;50.830;12.082;2023-06-26T09:56:29;2.25;;;2.15;;
11171;SDS011;5642;50.830;12.082;2023-06-26T09:58:56;2.88;;;2.20;;
11171;SDS011;5642;50.830;12.082;2023-06-26T10:01:24;2.00;;;1.90;;
11171;SDS011;5642;50.830;12.082;2023-06-26T10:03:50;2.00;;;1.90;;
11171;SDS011;5642;50.830;12.082;2023-06-26T10:06:19;2.20;;;2.10;;
11171;SDS011;5642;50.830;12.082;2023-06-26T10:08:48;2.03;;;1.92;;
11171;SDS011;5642;50.830;12.082;2023-06-26T10:11:16;1.92;;;1.83;;
11171;SDS011;5642;50.830;12.082;2023-06-26T10:13:45;2.10;;;2.00;;
11171;SDS011;5642;50.830;12.082;2023-06-26T10:16:15;2.13;;;2.03;;
11171;SDS011;5642;50.830;12.082;2023-06-26T10:18:47;1.95;;;1.85;;
11171;SDS011;5642;50.830;12.082;2023-06-26T10:21:18;2.05;;;1.95;;
11171;SDS011;5642;50.830;12.082;2023-06-26T10:23:47;2.03;;;1.92;;
11171;SDS011;5642;50.830;12.082;2023-06-26T10:26:14;2.40;;;2.30;;
11171;SDS011;5642;50.830;12.082;2023-06-26T10:28:40;2.10;;;2.00;;
11171;SDS011;5642;50.830;12.082;2023-06-26T10:31:10;2.10;;;2.00;;
11171;SDS011;5642;50.830;12.082;2023-06-26T10:33:37;1.90;;;1.80;;
11171;SDS011;5642;50.830;12.082;2023-06-26T10:36:17;1.67;;;1.65;;
11171;SDS011;5642;50.830;12.082;2023-06-26T10:38:48;2.20;;;2.10;;
11171;SDS011;5642;50.830;12.082;2023-06-26T10:41:17;1.90;;;1.80;;
11171;SDS011;5642;50.830;12.082;2023-06-26T10:43:45;1.88;;;1.77;;
11171;SDS011;5642;50.830;12.082;2023-06-26T10:46:15;1.98;;;1.88;;
11171;SDS011;5642;50.830;12.082;2023-06-26T10:48:59;2.10;;;2.00;;
11171;SDS011;5642;50.830;12.082;2023-06-26T10:51:26;1.90;;;1.80;;
11171;SDS011;5642;50.830;12.082;2023-06-26T10:53:54;2.10;;;2.00;;
11171;SDS011;5642;50.830;12.082;2023-06-26T10:56:20;2.00;;;1.90;;
11171;SDS011;5642;50.830;12.082;2023-06-26T10:58:50;1.98;;;1.88;;
11171;SDS011;5642;50.830;12.082;2023-06-26T11:03:48;2.20;;;2.10;;
11171;SDS011;5642;50.830;12.082;2023-06-26T11:06:22;2.08;;;1.98;;
11171;SDS011;5642;50.830;12.082;2023-06-26T11:08:51;1.85;;;1.75;;
11171;SDS011;5642;50.830;12.082;2023-06-26T11:11:20;1.90;;;1.80;;
11171;SDS011;5642;50.830;12.082;2023-06-26T11:13:47;1.90;;;1.80;;
11171;SDS011;5642;50.830;12.082;2023-06-26T11:16:14;2.00;;;1.90;;
11171;SDS011;5642;50.830;12.082;2023-06-26T11:18:41;1.90;;;1.80;;
11171;SDS011;5642;50.830;12.082;2023-06-26T11:21:09;2.00;;;1.90;;
11171;SDS011;5642;50.830;12.082;2023-06-26T11:23:39;1.98;;;1.88;;
11171;SDS011;5642;50.830;12.082;2023-06-26T11:26:18;2.00;;;1.90;;
11171;SDS011;5642;50.830;12.082;2023-06-26T11:28:49;2.00;;;1.90;;
11171;SDS011;5642;50.830;12.082;2023-06-26T11:31:30;2.00;;;1.90;;
11171;SDS011;5642;50.830;12.082;2023-06-26T11:34:14;1.77;;;1.67;;
11171;SDS011;5642;50.830;12.082;2023-06-26T11:36:41;2.00;;;1.90;;
11171;SDS011;5642;50.830;12.082;2023-06-26T11:39:11;2.08;;;1.98;;
11171;SDS011;5642;50.830;12.082;2023-06-26T11:41:38;2.20;;;2.10;;
11171;SDS011;5642;50.830;12.082;2023-06-26T11:44:09;1.98;;;1.88;;
11171;SDS011;5642;50.830;12.082;2023-06-26T11:46:36;2.08;;;1.98;;
11171;SDS011;5642;50.830;12.082;2023-06-26T11:49:06;2.22;;;2.13;;
11171;SDS011;5642;50.830;12.082;2023-06-26T11:51:34;2.20;;;2.10;;
11171;SDS011;5642;50.830;12.082;2023-06-26T11:54:02;2.30;;;2.10;;
11171;SDS011;5642;50.830;12.082;2023-06-26T11:56:28;2.28;;;2.13;;
11171;SDS011;5642;50.830;12.082;2023-06-26T12:03:58;2.15;;;2.05;;
11171;SDS011;5642;50.830;12.082;2023-06-26T12:06:33;2.10;;;2.00;;
11171;SDS011;5642;50.830;12.082;2023-06-26T12:09:02;2.00;;;1.90;;
11171;SDS011;5642;50.830;12.082;2023-06-26T12:11:31;2.10;;;2.00;;
11171;SDS011;5642;50.830;12.082;2023-06-26T12:13:57;2.13;;;2.03;;
11171;SDS011;5642;50.830;12.082;2023-06-26T12:16:24;2.15;;;2.05;;
11171;SDS011;5642;50.830;12.082;2023-06-26T12:18:51;2.22;;;2.13;;
11171;SDS011;5642;50.830;12.082;2023-06-26T12:24:12;2.30;;;2.10;;
11171;SDS011;5642;50.830;12.082;2023-06-26T12:26:44;2.17;;;2.08;;
11171;SDS011;5642;50.830;12.082;2023-06-26T12:29:12;1.90;;;1.80;;
11171;SDS011;5642;50.830;12.082;2023-06-26T12:31:43;2.10;;;2.00;;
11171;SDS011;5642;50.830;12.082;2023-06-26T12:34:15;2.22;;;2.13;;
11171;SDS011;5642;50.830;12.082;2023-06-26T12:36:45;2.33;;;2.15;;
11171;SDS011;5642;50.830;12.082;2023-06-26T12:39:18;1.85;;;1.75;;
11171;SDS011;5642;50.830;12.082;2023-06-26T12:41:47;2.10;;;2.00;;
11171;SDS011;5642;50.830;12.082;2023-06-26T12:44:30;2.55;;;2.35;;
11171;SDS011;5642;50.830;12.082;2023-06-26T12:46:58;2.42;;;2.22;;
11171;SDS011;5642;50.830;12.082;2023-06-26T12:49:44;2.20;;;2.10;;
11171;SDS011;5642;50.830;12.082;2023-06-26T12:52:15;2.15;;;2.05;;
11171;SDS011;5642;50.830;12.082;2023-06-26T12:54:42;2.20;;;1.95;;
11171;SDS011;5642;50.830;12.082;2023-06-26T12:57:09;2.50;;;2.30;;
11171;SDS011;5642;50.830;12.082;2023-06-26T12:59:36;2.33;;;2.13;;
11171;SDS011;5642;50.830;12.082;2023-06-26T13:02:03;2.15;;;2.05;;
11171;SDS011;5642;50.830;12.082;2023-06-26T13:04:29;2.63;;;2.42;;
11171;SDS011;5642;50.830;12.082;2023-06-26T13:06:56;2.00;;;1.90;;
11171;SDS011;5642;50.830;12.082;2023-06-26T13:09:23;2.20;;;2.10;;
11171;SDS011;5642;50.830;12.082;2023-06-26T13:11:50;2.03;;;1.92;;
11171;SDS011;5642;50.830;12.082;2023-06-26T13:14:17;2.10;;;2.00;;
11171;SDS011;5642;50.830;12.082;2023-06-26T13:16:43;2.42;;;2.15;;
11171;SDS011;5642;50.830;12.082;2023-06-26T13:19:09;2.10;;;2.00;;
11171;SDS011;5642;50.830;12.082;2023-06-26T13:21:35;2.08;;;1.98;;
11171;SDS011;5642;50.830;12.082;2023-06-26T13:24:02;2.22;;;2.10;;
11171;SDS011;5642;50.830;12.082;2023-06-26T13:26:34;2.40;;;2.20;;
11171;SDS011;5642;50.830;12.082;2023-06-26T13:29:01;2.50;;;2.30;;
11171;SDS011;5642;50.830;12.082;2023-06-26T13:31:27;2.10;;;2.00;;
11171;SDS011;5642;50.830;12.082;2023-06-26T13:33:57;2.30;;;2.20;;
11171;SDS011;5642;50.830;12.082;2023-06-26T13:36:24;2.10;;;2.00;;
11171;SDS011;5642;50.830;12.082;2023-06-26T13:38:52;2.10;;;2.00;;
11171;SDS011;5642;50.830;12.082;2023-06-26T13:41:23;2.40;;;2.20;;
11171;SDS011;5642;50.830;12.082;2023-06-26T13:43:54;2.17;;;2.08;;
11171;SDS011;5642;50.830;12.082;2023-06-26T13:46:20;2.30;;;2.10;;
11171;SDS011;5642;50.830;12.082;2023-06-26T13:49:04;2.10;;;2.00;;
11171;SDS011;5642;50.830;12.082;2023-06-26T13:51:30;2.33;;;2.22;;
11171;SDS011;5642;50.830;12.082;2023-06-26T13:53:57;2.13;;;2.03;;
11171;SDS011;5642;50.830;12.082;2023-06-26T13:56:25;2.20;;;2.10;;
11171;SDS011;5642;50.830;12.082;2023-06-26T13:58:53;2.22;;;2.13;;
11171;SDS011;5642;50.830;12.082;2023-06-26T14:01:19;2.45;;;2.25;;
11171;SDS011;5642;50.830;12.082;2023-06-26T14:03:45;2.53;;;2.33;;
11171;SDS011;5642;50.830;12.082;2023-06-26T14:06:11;2.65;;;2.45;;
11171;SDS011;5642;50.830;12.082;2023-06-26T14:08:38;2.30;;;2.10;;
11171;SDS011;5642;50.830;12.082;2023-06-26T14:11:04;2.42;;;2.20;;
11171;SDS011;5642;50.830;12.082;2023-06-26T14:13:30;2.72;;;2.40;;
11171;SDS011;5642;50.830;12.082;2023-06-26T14:15:56;2.40;;;2.20;;
11171;SDS011;5642;50.830;12.082;2023-06-26T14:18:22;2.33;;;2.22;;
11171;SDS011;5642;50.830;12.082;2023-06-26T14:20:49;2.67;;;2.47;;
11171;SDS011;5642;50.830;12.082;2023-06-26T14:23:15;4.30;;;2.40;;
11171;SDS011;5642;50.830;12.082;2023-06-26T14:25:41;3.75;;;2.50;;
11171;SDS011;5642;50.830;12.082;2023-06-26T14:28:07;3.55;;;2.25;;
11171;SDS011;5642;50.830;12.082;2023-06-26T14:30:33;3.17;;;2.30;;
11171;SDS011;5642;50.830;12.082;2023-06-26T14:32:59;2.55;;;2.35;;
11171;SDS011;5642;50.830;12.082;2023-06-26T14:35:25;2.17;;;2.08;;
11171;SDS011;5642;50.830;12.082;2023-06-26T14:37:51;2.53;;;2.33;;
11171;SDS011;5642;50.830;12.082;2023-06-26T14:40:17;2.10;;;1.90;;
11171;SDS011;5642;50.830;12.082;2023-06-26T14:42:43;2.45;;;2.25;;
11171;SDS011;5642;50.830;12.082;2023-06-26T14:45:09;3.30;;;2.35;;
11171;SDS011;5642;50.830;12.082;2023-06-26T14:47:36;2.42;;;2.22;;
11171;SDS011;5642;50.830;12.082;2023-06-26T14:50:02;3.55;;;2.55;;
11171;SDS011;5642;50.830;12.082;2023-06-26T14:52:31;2.60;;;2.38;;
11171;SDS011;5642;50.830;12.082;2023-06-26T14:54:57;3.58;;;2.50;;
11171;SDS011;5642;50.830;12.082;2023-06-26T14:57:22;2.78;;;2.30;;
11171;SDS011;5642;50.830;12.082;2023-06-26T14:59:48;2.58;;;2.38;;
11171;SDS011;5642;50.830;12.082;2023-06-26T15:02:15;3.42;;;2.40;;
11171;SDS011;5642;50.830;12.082;2023-06-26T15:04:41;2.70;;;2.50;;
11171;SDS011;5642;50.830;12.082;2023-06-26T15:07:07;4.03;;;2.35;;
11171;SDS011;5642;50.830;12.082;2023-06-26T15:09:33;3.20;;;2.45;;
11171;SDS011;5642;50.830;12.082;2023-06-26T15:11:59;2.65;;;2.45;;
11171;SDS011;5642;50.830;12.082;2023-06-26T15:14:25;4.18;;;2.40;;
11171;SDS011;5642;50.830;12.082;2023-06-26T15:16:51;2.40;;;2.22;;
11171;SDS011;5642;50.830;12.082;2023-06-26T15:19:17;3.30;;;2.13;;
11171;SDS011;5642;50.830;12.082;2023-06-26T15:21:43;4.45;;;2.25;;
11171;SDS011;5642;50.830;12.082;2023-06-26T15:24:09;2.80;;;2.60;;
11171;SDS011;5642;50.830;12.082;2023-06-26T15:26:35;3.42;;;2.40;;
11171;SDS011;5642;50.830;12.082;2023-06-26T15:29:02;4.13;;;2.65;;
11171;SDS011;5642;50.830;12.082;2023-06-26T15:31:29;2.65;;;2.42;;
11171;SDS011;5642;50.830;12.082;2023-06-26T15:33:56;2.72;;;2.47;;
11171;SDS011;5642;50.830;12.082;2023-06-26T15:36:22;2.50;;;2.30;;
11171;SDS011;5642;50.830;12.082;2023-06-26T15:38:48;2.47;;;2.28;;
11171;SDS011;5642;50.830;12.082;2023-06-26T15:41:14;2.75;;;2.50;;
11171;SDS011;5642;50.830;12.082;2023-06-26T15:43:40;2.95;;;2.30;;
11171;SDS011;5642;50.830;12.082;2023-06-26T15:46:08;2.60;;;2.40;;
11171;SDS011;5642;50.830;12.082;2023-06-26T15:48:34;2.80;;;2.25;;
11171;SDS011;5642;50.830;12.082;2023-06-26T15:51:00;2.50;;;2.30;;
11171;SDS011;5642;50.830;12.082;2023-06-26T15:53:33;2.65;;;2.45;;